| time (UTC) | temp C | wind direction | speed KPH | gust KPH | rain 1hr cm | rain 24hr cm | rain mn cm | humidity % | barometer mb |
| 20260507234936 | 20 | 225 | 6.4 | 9.7 | 0.00 | 0.00 | 0.00 | 40 | 1010.2 |
| 20260507234432 | 20 | 195 | 6.4 | 9.7 | 0.00 | 0.00 | 0.00 | 39 | 1010.0 |
| 20260507233929 | 20 | 222 | 3.2 | 4.8 | 0.00 | 0.00 | 0.00 | 40 | 1010.1 |
| 20260507233426 | 20 | 288 | 3.2 | 4.8 | 0.00 | 0.00 | 0.00 | 40 | 1010.2 |
| 20260507232924 | 20 | 218 | 3.2 | 4.8 | 0.00 | 0.00 | 0.00 | 39 | 1010.2 |
| 20260507232420 | 20 | 274 | 4.8 | 6.4 | 0.00 | 0.00 | 0.00 | 39 | 1010.2 |
| 20260507231918 | 20 | 309 | 0.0 | 0.0 | 0.00 | 0.00 | 0.00 | 39 | 1010.2 |
| 20260507231414 | 20 | 219 | 6.4 | 9.7 | 0.00 | 0.00 | 0.00 | 39 | 1010.2 |
| 20260507230911 | 20 | 198 | 11.3 | 14.5 | 0.00 | 0.00 | 0.00 | 38 | 1010.3 |
| 20260507230408 | 21 | 303 | 1.6 | 3.2 | 0.00 | 0.00 | 0.00 | 38 | 1010.4 |
| 20260507225908 | 20 | 317 | 0.0 | 0.0 | 0.00 | 0.00 | 0.00 | 38 | 1010.5 |
| 20260507225405 | 20 | 298 | 1.6 | 3.2 | 0.00 | 0.00 | 0.00 | 38 | 1010.8 |
| 20260507224901 | 21 | 280 | 0.0 | 1.6 | 0.00 | 0.00 | 0.00 | 38 | 1010.7 |
| 20260507224357 | 21 | 195 | 3.2 | 4.8 | 0.00 | 0.00 | 0.00 | 37 | 1010.7 |
| 20260507223853 | 21 | 198 | 9.7 | 12.9 | 0.00 | 0.00 | 0.00 | 38 | 1010.8 |
| 20260507223350 | 21 | 246 | 8.0 | 11.3 | 0.00 | 0.00 | 0.00 | 37 | 1010.7 |
| 20260507222847 | 20 | 276 | 4.8 | 6.4 | 0.00 | 0.00 | 0.00 | 37 | 1010.9 |
| 20260507222343 | 20 | 314 | 4.8 | 9.7 | 0.00 | 0.00 | 0.00 | 38 | 1010.9 |
| 20260507221840 | 20 | 253 | 1.6 | 3.2 | 0.00 | 0.00 | 0.00 | 39 | 1011.2 |
| 20260507221337 | 20 | 200 | 6.4 | 11.3 | 0.00 | 0.00 | 0.00 | 39 | 1010.9 |
| 20260507220833 | 20 | 174 | 6.4 | 11.3 | 0.00 | 0.00 | 0.00 | 38 | 1011.1 |
| 20260507220331 | 20 | 279 | 3.2 | 4.8 | 0.00 | 0.00 | 0.00 | 39 | 1011.3 |
| 20260507215827 | 20 | 225 | 9.7 | 12.9 | 0.00 | 0.00 | 0.00 | 38 | 1011.5 |
| 20260507215325 | 20 | 251 | 3.2 | 3.2 | 0.00 | 0.00 | 0.00 | 38 | 1011.1 |
| 20260507214822 | 20 | 261 | 6.4 | 6.4 | 0.00 | 0.00 | 0.00 | 39 | 1011.2 |
| 20260507214320 | 20 | 209 | 6.4 | 9.7 | 0.00 | 0.00 | 0.00 | 38 | 1011.1 |
| 20260507213820 | 21 | 256 | 4.8 | 4.8 | 0.00 | 0.00 | 0.00 | 36 | 1011.2 |
| 20260507213317 | 21 | 203 | 9.7 | 12.9 | 0.00 | 0.00 | 0.00 | 35 | 1011.2 |
| 20260507212814 | 21 | 310 | 3.2 | 4.8 | 0.00 | 0.00 | 0.00 | 36 | 1011.1 |
| 20260507212310 | 21 | 277 | 11.3 | 16.1 | 0.00 | 0.00 | 0.00 | 36 | 1011.2 |
| 20260507211806 | 21 | 309 | 4.8 | 6.4 | 0.00 | 0.00 | 0.00 | 34 | 1011.1 |
| 20260507211303 | 21 | 284 | 3.2 | 3.2 | 0.00 | 0.00 | 0.00 | 35 | 1011.3 |
| 20260507210800 | 21 | 247 | 8.0 | 14.5 | 0.00 | 0.00 | 0.00 | 36 | 1011.2 |
| 20260507210257 | 21 | 299 | 14.5 | 20.9 | 0.00 | 0.00 | 0.00 | 36 | 1011.3 |
| 20260507205753 | 22 | 195 | 9.7 | 14.5 | 0.00 | 0.00 | 0.00 | 35 | 1011.4 |
| 20260507205250 | 21 | 313 | 4.8 | 9.7 | 0.00 | 0.00 | 0.00 | 36 | 1011.3 |
| 20260507204746 | 21 | 223 | 9.7 | 11.3 | 0.00 | 0.00 | 0.00 | 35 | 1011.6 |
| 20260507204245 | 21 | 192 | 11.3 | 14.5 | 0.00 | 0.00 | 0.00 | 34 | 1011.4 |
| 20260507203742 | 21 | 171 | 4.8 | 6.4 | 0.00 | 0.00 | 0.00 | 35 | 1011.7 |
| 20260507203239 | 20 | 202 | 8.0 | 9.7 | 0.00 | 0.00 | 0.00 | 38 | 1011.5 |
| 20260507202735 | 20 | 263 | 11.3 | 14.5 | 0.00 | 0.00 | 0.00 | 38 | 1011.8 |
| 20260507202232 | 20 | 231 | 6.4 | 6.4 | 0.00 | 0.00 | 0.00 | 39 | 1011.7 |
| 20260507201726 | 20 | 235 | 6.4 | 6.4 | 0.00 | 0.00 | 0.00 | 39 | 1011.8 |
| 20260507201224 | 20 | 307 | 4.8 | 9.7 | 0.00 | 0.00 | 0.00 | 39 | 1011.8 |
| 20260507200720 | 20 | 209 | 4.8 | 11.3 | 0.00 | 0.00 | 0.00 | 38 | 1011.8 |
| 20260507200216 | 20 | 228 | 6.4 | 11.3 | 0.00 | 0.00 | 0.00 | 38 | 1012.3 |
| 20260507195713 | 21 | 289 | 3.2 | 4.8 | 0.00 | 0.00 | 0.00 | 38 | 1011.9 |
| 20260507195210 | 20 | 314 | 1.6 | 3.2 | 0.00 | 0.00 | 0.00 | 36 | 1012.1 |
| 20260507194707 | 20 | 228 | 6.4 | 11.3 | 0.00 | 0.00 | 0.00 | 37 | 1012.2 |
| 20260507194202 | 20 | 267 | 11.3 | 12.9 | 0.00 | 0.00 | 0.00 | 38 | 1012.3 |
| 20260507193659 | 21 | 268 | 6.4 | 9.7 | 0.00 | 0.00 | 0.00 | 37 | 1012.4 |
| 20260507193156 | 20 | 308 | 1.6 | 3.2 | 0.00 | 0.00 | 0.00 | 38 | 1012.5 |
| 20260507192652 | 20 | 248 | 3.2 | 4.8 | 0.00 | 0.00 | 0.00 | 39 | 1012.4 |
| 20260507192150 | 20 | 268 | 6.4 | 6.4 | 0.00 | 0.00 | 0.00 | 37 | 1012.5 |
| 20260507191645 | 21 | 304 | 6.4 | 9.7 | 0.00 | 0.00 | 0.00 | 37 | 1012.5 |
| 20260507191142 | 20 | 283 | 4.8 | 4.8 | 0.00 | 0.00 | 0.00 | 41 | 1012.6 |
| 20260507190639 | 19 | 208 | 9.7 | 14.5 | 0.00 | 0.00 | 0.00 | 39 | 1012.7 |
| 20260507190138 | 19 | 214 | 6.4 | 12.9 | 0.00 | 0.00 | 0.00 | 39 | 1012.7 |
| 20260507185636 | 20 | 259 | 6.4 | 9.7 | 0.00 | 0.00 | 0.00 | 36 | 1013.0 |
| 20260507185132 | 19 | 179 | 9.7 | 14.5 | 0.00 | 0.00 | 0.00 | 39 | 1012.8 |
| 20260507184630 | 20 | 266 | 4.8 | 6.4 | 0.00 | 0.00 | 0.00 | 40 | 1012.9 |
| 20260507184128 | 20 | 232 | 4.8 | 4.8 | 0.00 | 0.00 | 0.00 | 39 | 1013.0 |
| 20260507183624 | 19 | 143 | 9.7 | 12.9 | 0.00 | 0.00 | 0.00 | 38 | 1013.1 |
| 20260507183121 | 19 | 293 | 0.0 | 0.0 | 0.00 | 0.00 | 0.00 | 39 | 1013.2 |
| 20260507182617 | 20 | 246 | 4.8 | 6.4 | 0.00 | 0.00 | 0.00 | 40 | 1013.0 |
| 20260507182113 | 20 | 250 | 4.8 | 6.4 | 0.00 | 0.00 | 0.00 | 35 | 1013.2 |
| 20260507181611 | 20 | 271 | 4.8 | 4.8 | 0.00 | 0.00 | 0.00 | 37 | 1013.3 |
| 20260507181107 | 20 | 215 | 4.8 | 6.4 | 0.00 | 0.00 | 0.00 | 41 | 1013.1 |
| 20260507180603 | 20 | 226 | 8.0 | 14.5 | 0.00 | 0.00 | 0.00 | 37 | 1013.4 |
| 20260507180100 | 20 | 3 | 4.8 | 9.7 | 0.00 | 0.00 | 0.00 | 38 | 1013.5 |
| 20260507175556 | 19 | 293 | 6.4 | 11.3 | 0.00 | 0.00 | 0.00 | 39 | 1013.6 |
| 20260507175054 | 19 | 324 | 6.4 | 9.7 | 0.00 | 0.00 | 0.00 | 39 | 1013.6 |
| 20260507174551 | 19 | 259 | 3.2 | 3.2 | 0.00 | 0.00 | 0.00 | 38 | 1013.6 |
| 20260507174049 | 19 | 274 | 9.7 | 16.1 | 0.00 | 0.00 | 0.00 | 39 | 1013.6 |
| 20260507173545 | 18 | 264 | 4.8 | 6.4 | 0.00 | 0.00 | 0.00 | 41 | 1013.9 |
| 20260507173042 | 19 | 208 | 12.9 | 17.7 | 0.00 | 0.00 | 0.00 | 39 | 1014.0 |
| 20260507172538 | 18 | 204 | 11.3 | 14.5 | 0.00 | 0.00 | 0.00 | 42 | 1013.9 |
| 20260507172035 | 18 | 266 | 9.7 | 17.7 | 0.00 | 0.00 | 0.00 | 39 | 1014.0 |
| 20260507171531 | 18 | 217 | 4.8 | 6.4 | 0.00 | 0.00 | 0.00 | 41 | 1014.1 |
| 20260507171028 | 19 | 232 | 12.9 | 17.7 | 0.00 | 0.00 | 0.00 | 40 | 1014.2 |
| 20260507170525 | 19 | 221 | 3.2 | 4.8 | 0.00 | 0.00 | 0.00 | 41 | 1014.1 |
| 20260507170022 | 18 | 241 | 8.0 | 11.3 | 0.00 | 0.00 | 0.00 | 40 | 1014.6 |
| 20260507165517 | 18 | 220 | 12.9 | 16.1 | 0.00 | 0.00 | 0.00 | 40 | 1014.3 |
| 20260507165014 | 18 | 222 | 16.1 | 20.9 | 0.00 | 0.00 | 0.00 | 39 | 1014.7 |
| 20260507164510 | 18 | 293 | 4.8 | 6.4 | 0.00 | 0.00 | 0.00 | 40 | 1014.6 |
| 20260507164008 | 18 | 180 | 9.7 | 11.3 | 0.00 | 0.00 | 0.00 | 40 | 1014.4 |
| 20260507163505 | 18 | 260 | 1.6 | 3.2 | 0.00 | 0.00 | 0.00 | 43 | 1014.7 |
| 20260507163002 | 18 | 99 | 9.7 | 17.7 | 0.00 | 0.00 | 0.00 | 40 | 1014.7 |
| 20260507162457 | 18 | 275 | 9.7 | 12.9 | 0.00 | 0.00 | 0.00 | 40 | 1014.8 |
| 20260507161954 | 18 | 206 | 19.3 | 25.7 | 0.00 | 0.00 | 0.00 | 40 | 1014.8 |
| 20260507161450 | 18 | 261 | 12.9 | 16.1 | 0.00 | 0.00 | 0.00 | 39 | 1014.8 |
| 20260507160948 | 18 | 229 | 0.0 | 1.6 | 0.00 | 0.00 | 0.00 | 42 | 1014.6 |
| 20260507160443 | 17 | 176 | 6.4 | 9.7 | 0.00 | 0.00 | 0.00 | 42 | 1014.9 |
| 20260507155939 | 18 | 210 | 3.2 | 4.8 | 0.00 | 0.00 | 0.00 | 42 | 1015.0 |
| 20260507155436 | 18 | 329 | 6.4 | 11.3 | 0.00 | 0.00 | 0.00 | 41 | 1015.1 |
| 20260507154933 | 17 | 9 | 8.0 | 9.7 | 0.00 | 0.00 | 0.00 | 44 | 1015.2 |
| 20260507154429 | 17 | 260 | 4.8 | 6.4 | 0.00 | 0.00 | 0.00 | 46 | 1015.0 |
| 20260507153927 | 17 | 244 | 6.4 | 11.3 | 0.00 | 0.00 | 0.00 | 44 | 1015.2 |
| 20260507153423 | 17 | 161 | 6.4 | 11.3 | 0.00 | 0.00 | 0.00 | 45 | 1015.4 |
| 20260507152919 | 17 | 184 | 6.4 | 11.3 | 0.00 | 0.00 | 0.00 | 45 | 1015.3 |
| 20260507152416 | 17 | 258 | 8.0 | 11.3 | 0.00 | 0.00 | 0.00 | 45 | 1015.3 |
| 20260507151912 | 17 | 270 | 8.0 | 14.5 | 0.00 | 0.00 | 0.00 | 44 | 1015.1 |
| 20260507151409 | 17 | 246 | 6.4 | 9.7 | 0.00 | 0.00 | 0.00 | 42 | 1015.3 |
| 20260507150905 | 17 | 5 | 1.6 | 1.6 | 0.00 | 0.00 | 0.00 | 45 | 1015.2 |
| 20260507150402 | 16 | 230 | 8.0 | 11.3 | 0.00 | 0.00 | 0.00 | 46 | 1015.3 |
| 20260507145858 | 16 | 301 | 1.6 | 3.2 | 0.00 | 0.00 | 0.00 | 47 | 1015.3 |
| 20260507145354 | 16 | 220 | 9.7 | 9.7 | 0.00 | 0.00 | 0.00 | 46 | 1015.4 |
| 20260507144852 | 16 | 299 | 3.2 | 6.4 | 0.00 | 0.00 | 0.00 | 47 | 1015.3 |
| 20260507144349 | 15 | 145 | 6.4 | 6.4 | 0.00 | 0.00 | 0.00 | 50 | 1015.3 |
| 20260507143845 | 15 | 271 | 1.6 | 1.6 | 0.00 | 0.00 | 0.00 | 51 | 1015.2 |
| 20260507143343 | 15 | 247 | 6.4 | 9.7 | 0.00 | 0.00 | 0.00 | 50 | 1015.2 |
| 20260507142839 | 15 | 316 | 0.0 | 0.0 | 0.00 | 0.00 | 0.00 | 50 | 1015.3 |
| 20260507142335 | 15 | 293 | 3.2 | 3.2 | 0.00 | 0.00 | 0.00 | 53 | 1015.3 |
| 20260507141832 | 15 | 297 | 8.0 | 11.3 | 0.00 | 0.00 | 0.00 | 53 | 1015.4 |
| 20260507141329 | 14 | 271 | 4.8 | 6.4 | 0.00 | 0.00 | 0.00 | 55 | 1015.4 |
| 20260507140825 | 14 | 225 | 3.2 | 3.2 | 0.00 | 0.00 | 0.00 | 54 | 1015.4 |
| 20260507140322 | 13 | 316 | 1.6 | 4.8 | 0.00 | 0.00 | 0.00 | 56 | 1015.5 |
| 20260507135820 | 13 | 255 | 6.4 | 9.7 | 0.00 | 0.00 | 0.00 | 57 | 1015.5 |
| 20260507135317 | 13 | 319 | 3.2 | 3.2 | 0.00 | 0.00 | 0.00 | 58 | 1015.6 |
| 20260507134814 | 13 | 208 | 8.0 | 11.3 | 0.00 | 0.00 | 0.00 | 58 | 1015.7 |
| 20260507134310 | 13 | 283 | 4.8 | 6.4 | 0.00 | 0.00 | 0.00 | 57 | 1015.7 |
| 20260507133805 | 12 | 294 | 1.6 | 3.2 | 0.00 | 0.00 | 0.00 | 59 | 1015.7 |
| 20260507133302 | 12 | 260 | 3.2 | 3.2 | 0.00 | 0.00 | 0.00 | 59 | 1015.8 |
| 20260507132800 | 11 | 349 | 3.2 | 4.8 | 0.00 | 0.00 | 0.00 | 61 | 1015.9 |
| 20260507132256 | 11 | 292 | 1.6 | 3.2 | 0.00 | 0.00 | 0.00 | 59 | 1015.9 |
| 20260507131753 | 11 | 271 | 3.2 | 4.8 | 0.00 | 0.00 | 0.00 | 61 | 1015.7 |
| 20260507131250 | 10 | 288 | 3.2 | 4.8 | 0.00 | 0.00 | 0.00 | 62 | 1015.9 |
| 20260507130747 | 10 | 238 | 4.8 | 9.7 | 0.00 | 0.00 | 0.00 | 62 | 1015.8 |
| 20260507130245 | 10 | 238 | 6.4 | 6.4 | 0.00 | 0.00 | 0.00 | 62 | 1015.9 |
| 20260507125743 | 10 | 290 | 3.2 | 4.8 | 0.00 | 0.00 | 0.00 | 63 | 1016.0 |
| 20260507125240 | 9 | 260 | 3.2 | 3.2 | 0.00 | 0.00 | 0.00 | 64 | 1016.0 |
| 20260507124737 | 8 | 211 | 3.2 | 4.8 | 0.00 | 0.00 | 0.00 | 64 | 1016.1 |
| 20260507124234 | 8 | 245 | 4.8 | 6.4 | 0.00 | 0.00 | 0.00 | 64 | 1016.0 |
| 20260507123732 | 8 | 303 | 3.2 | 4.8 | 0.00 | 0.00 | 0.00 | 64 | 1016.2 |
| 20260507123230 | 8 | 293 | 3.2 | 4.8 | 0.00 | 0.00 | 0.00 | 65 | 1015.9 |
| 20260507122724 | 8 | 226 | 6.4 | 9.7 | 0.00 | 0.00 | 0.00 | 65 | 1016.1 |
| 20260507122221 | 8 | 233 | 4.8 | 4.8 | 0.00 | 0.00 | 0.00 | 66 | 1016.1 |
| 20260507121716 | 7 | 257 | 3.2 | 6.4 | 0.00 | 0.00 | 0.00 | 66 | 1016.0 |
| 20260507121213 | 7 | 276 | 3.2 | 4.8 | 0.00 | 0.00 | 0.00 | 66 | 1016.1 |
| 20260507120709 | 7 | 323 | 3.2 | 6.4 | 0.00 | 0.00 | 0.00 | 66 | 1016.0 |
| 20260507120206 | 7 | 305 | 4.8 | 6.4 | 0.00 | 0.00 | 0.00 | 67 | 1015.9 |
| 20260507115702 | 6 | 239 | 4.8 | 6.4 | 0.00 | 0.00 | 0.00 | 68 | 1015.9 |
| 20260507115158 | 6 | 270 | 3.2 | 3.2 | 0.00 | 0.00 | 0.00 | 68 | 1015.9 |
| 20260507114654 | 6 | 311 | 0.0 | 0.0 | 0.00 | 0.00 | 0.00 | 69 | 1015.8 |
| 20260507114151 | 6 | 299 | 0.0 | 0.0 | 0.00 | 0.00 | 0.00 | 69 | 1015.7 |
| 20260507113649 | 6 | 301 | 0.0 | 0.0 | 0.00 | 0.00 | 0.00 | 69 | 1015.6 |
| 20260507113145 | 6 | 279 | 1.6 | 1.6 | 0.00 | 0.00 | 0.00 | 69 | 1015.6 |
| 20260507112643 | 6 | 295 | 0.0 | 0.0 | 0.00 | 0.00 | 0.00 | 69 | 1015.6 |
| 20260507112140 | 6 | 282 | 1.6 | 1.6 | 0.00 | 0.00 | 0.00 | 69 | 1015.7 |
| 20260507111637 | 6 | 278 | 1.6 | 3.2 | 0.00 | 0.00 | 0.00 | 68 | 1015.4 |
| 20260507111133 | 6 | 283 | 1.6 | 1.6 | 0.00 | 0.00 | 0.00 | 68 | 1015.5 |
| 20260507110630 | 6 | 263 | 3.2 | 4.8 | 0.00 | 0.00 | 0.00 | 68 | 1015.5 |
| 20260507110126 | 6 | 223 | 4.8 | 4.8 | 0.00 | 0.00 | 0.00 | 67 | 1015.7 |
| 20260507105623 | 6 | 232 | 4.8 | 4.8 | 0.00 | 0.00 | 0.00 | 66 | 1015.6 |
| 20260507105119 | 6 | 259 | 3.2 | 3.2 | 0.00 | 0.00 | 0.00 | 66 | 1015.7 |
| 20260507104617 | 6 | 230 | 3.2 | 4.8 | 0.00 | 0.00 | 0.00 | 66 | 1015.8 |
| 20260507104113 | 6 | 282 | 1.6 | 3.2 | 0.00 | 0.00 | 0.00 | 66 | 1015.8 |
| 20260507103609 | 6 | 290 | 0.0 | 1.6 | 0.00 | 0.00 | 0.00 | 66 | 1015.7 |
| 20260507103106 | 6 | 274 | 3.2 | 3.2 | 0.00 | 0.00 | 0.00 | 65 | 1015.8 |
| 20260507102603 | 6 | 279 | 1.6 | 3.2 | 0.00 | 0.00 | 0.00 | 65 | 1015.9 |
| 20260507102059 | 6 | 281 | 1.6 | 1.6 | 0.00 | 0.00 | 0.00 | 65 | 1015.8 |
| 20260507101554 | 6 | 285 | 1.6 | 3.2 | 0.00 | 0.00 | 0.00 | 65 | 1015.8 |
| 20260507101051 | 6 | 256 | 3.2 | 3.2 | 0.00 | 0.00 | 0.00 | 66 | 1016.0 |
| 20260507100548 | 6 | 298 | 1.6 | 1.6 | 0.00 | 0.00 | 0.00 | 66 | 1016.1 |
| 20260507100046 | 6 | 282 | 1.6 | 1.6 | 0.00 | 0.00 | 0.00 | 66 | 1015.9 |
| 20260507095544 | 6 | 304 | 0.0 | 0.0 | 0.00 | 0.00 | 0.00 | 66 | 1016.1 |
| 20260507095040 | 6 | 300 | 0.0 | 1.6 | 0.00 | 0.00 | 0.00 | 66 | 1016.1 |
| 20260507094536 | 6 | 307 | 0.0 | 0.0 | 0.00 | 0.00 | 0.00 | 65 | 1016.0 |
| 20260507094034 | 6 | 287 | 1.6 | 1.6 | 0.00 | 0.00 | 0.00 | 66 | 1016.1 |
| 20260507093531 | 6 | 300 | 0.0 | 0.0 | 0.00 | 0.00 | 0.00 | 66 | 1016.0 |
| 20260507093030 | 6 | 292 | 1.6 | 1.6 | 0.00 | 0.00 | 0.00 | 66 | 1016.1 |
| 20260507092526 | 6 | 287 | 0.0 | 1.6 | 0.00 | 0.00 | 0.00 | 66 | 1015.9 |
| 20260507092023 | 6 | 282 | 1.6 | 1.6 | 0.00 | 0.00 | 0.00 | 65 | 1016.1 |
| 20260507091519 | 6 | 270 | 1.6 | 3.2 | 0.00 | 0.00 | 0.00 | 66 | 1016.1 |
| 20260507091015 | 6 | 288 | 1.6 | 1.6 | 0.00 | 0.00 | 0.00 | 66 | 1015.9 |
| 20260507090511 | 6 | 289 | 1.6 | 1.6 | 0.00 | 0.00 | 0.00 | 65 | 1016.1 |
| 20260507090008 | 6 | 269 | 1.6 | 3.2 | 0.00 | 0.00 | 0.00 | 65 | 1016.0 |
| 20260507085505 | 6 | 295 | 1.6 | 1.6 | 0.00 | 0.00 | 0.00 | 65 | 1016.2 |
| 20260507085002 | 6 | 286 | 1.6 | 1.6 | 0.00 | 0.00 | 0.00 | 65 | 1016.1 |
| 20260507084459 | 7 | 290 | 0.0 | 1.6 | 0.00 | 0.00 | 0.00 | 65 | 1016.3 |
| 20260507083956 | 7 | 295 | 0.0 | 0.0 | 0.00 | 0.00 | 0.00 | 65 | 1016.4 |
| 20260507083452 | 7 | 306 | 0.0 | 0.0 | 0.00 | 0.00 | 0.00 | 64 | 1016.4 |
| 20260507082948 | 7 | 298 | 0.0 | 0.0 | 0.00 | 0.00 | 0.00 | 64 | 1016.6 |
| 20260507082445 | 7 | 295 | 0.0 | 1.6 | 0.00 | 0.00 | 0.00 | 63 | 1016.5 |
| 20260507081941 | 7 | 277 | 1.6 | 3.2 | 0.00 | 0.00 | 0.00 | 63 | 1016.5 |
| 20260507081438 | 7 | 286 | 0.0 | 1.6 | 0.00 | 0.00 | 0.00 | 63 | 1016.4 |
| 20260507080935 | 7 | 283 | 1.6 | 1.6 | 0.00 | 0.00 | 0.00 | 63 | 1016.5 |
| 20260507080431 | 7 | 286 | 1.6 | 1.6 | 0.00 | 0.00 | 0.00 | 63 | 1016.5 |
| 20260507075926 | 7 | 288 | 0.0 | 0.0 | 0.00 | 0.00 | 0.00 | 63 | 1016.4 |
| 20260507075423 | 7 | 288 | 0.0 | 1.6 | 0.00 | 0.00 | 0.00 | 63 | 1016.6 |
| 20260507074919 | 7 | 293 | 0.0 | 1.6 | 0.00 | 0.00 | 0.00 | 63 | 1016.4 |
| 20260507074416 | 7 | 295 | 0.0 | 0.0 | 0.00 | 0.00 | 0.00 | 63 | 1016.5 |
| 20260507073914 | 7 | 286 | 1.6 | 1.6 | 0.00 | 0.00 | 0.00 | 63 | 1016.5 |
| 20260507073410 | 7 | 291 | 0.0 | 0.0 | 0.00 | 0.00 | 0.00 | 63 | 1016.7 |
| 20260507072907 | 7 | 293 | 0.0 | 0.0 | 0.00 | 0.00 | 0.00 | 62 | 1016.5 |
| 20260507072405 | 7 | 297 | 0.0 | 1.6 | 0.00 | 0.00 | 0.00 | 61 | 1016.4 |
| 20260507071902 | 7 | 296 | 0.0 | 0.0 | 0.00 | 0.00 | 0.00 | 60 | 1016.7 |
| 20260507071359 | 8 | 294 | 0.0 | 0.0 | 0.00 | 0.00 | 0.00 | 59 | 1016.7 |
| 20260507070855 | 8 | 293 | 1.6 | 1.6 | 0.00 | 0.00 | 0.00 | 59 | 1016.8 |
| 20260507070353 | 8 | 296 | 0.0 | 0.0 | 0.00 | 0.00 | 0.00 | 57 | 1016.9 |
| 20260507065849 | 8 | 298 | 0.0 | 0.0 | 0.00 | 0.00 | 0.00 | 57 | 1016.9 |
| 20260507065346 | 8 | 300 | 0.0 | 0.0 | 0.00 | 0.00 | 0.00 | 57 | 1016.9 |
| 20260507064843 | 8 | 294 | 0.0 | 0.0 | 0.00 | 0.00 | 0.00 | 58 | 1016.9 |
| 20260507064342 | 8 | 294 | 0.0 | 0.0 | 0.00 | 0.00 | 0.00 | 60 | 1016.9 |
| 20260507063839 | 8 | 294 | 0.0 | 0.0 | 0.00 | 0.00 | 0.00 | 60 | 1016.9 |
| 20260507063336 | 8 | 294 | 0.0 | 0.0 | 0.00 | 0.00 | 0.00 | 60 | 1016.9 |
| 20260507062832 | 8 | 294 | 0.0 | 0.0 | 0.00 | 0.00 | 0.00 | 60 | 1017.2 |
| 20260507062329 | 8 | 294 | 0.0 | 0.0 | 0.00 | 0.00 | 0.00 | 60 | 1017.1 |
| 20260507061828 | 8 | 294 | 0.0 | 0.0 | 0.00 | 0.00 | 0.00 | 60 | 1017.2 |
| 20260507061325 | 8 | 294 | 0.0 | 0.0 | 0.00 | 0.00 | 0.00 | 60 | 1017.2 |
| 20260507060823 | 8 | 294 | 0.0 | 0.0 | 0.00 | 0.00 | 0.00 | 59 | 1017.2 |
| 20260507060320 | 8 | 294 | 0.0 | 0.0 | 0.00 | 0.00 | 0.00 | 59 | 1017.2 |
| 20260507055817 | 8 | 294 | 0.0 | 0.0 | 0.00 | 0.00 | 0.00 | 59 | 1017.4 |
| 20260507055312 | 8 | 294 | 0.0 | 0.0 | 0.00 | 0.00 | 0.00 | 58 | 1017.3 |
| 20260507054808 | 8 | 294 | 0.0 | 0.0 | 0.00 | 0.00 | 0.00 | 57 | 1017.2 |
| 20260507054305 | 8 | 294 | 0.0 | 0.0 | 0.00 | 0.00 | 0.00 | 57 | 1017.1 |
| 20260507053802 | 8 | 295 | 0.0 | 0.0 | 0.00 | 0.00 | 0.00 | 58 | 1017.1 |
| 20260507053300 | 8 | 294 | 0.0 | 0.0 | 0.00 | 0.00 | 0.00 | 58 | 1017.2 |
| 20260507052759 | 8 | 294 | 0.0 | 0.0 | 0.00 | 0.00 | 0.00 | 59 | 1017.3 |
| 20260507052254 | 8 | 294 | 0.0 | 0.0 | 0.00 | 0.00 | 0.00 | 58 | 1017.3 |
| 20260507051753 | 8 | 295 | 0.0 | 0.0 | 0.00 | 0.00 | 0.00 | 57 | 1017.1 |
| 20260507051249 | 8 | 295 | 0.0 | 0.0 | 0.00 | 0.00 | 0.00 | 56 | 1017.3 |
| 20260507050746 | 8 | 295 | 0.0 | 0.0 | 0.00 | 0.00 | 0.00 | 57 | 1017.1 |
| 20260507050243 | 8 | 294 | 0.0 | 0.0 | 0.00 | 0.00 | 0.00 | 57 | 1017.4 |
| 20260507045740 | 8 | 295 | 0.0 | 0.0 | 0.00 | 0.00 | 0.00 | 57 | 1017.2 |
| 20260507045236 | 8 | 295 | 0.0 | 0.0 | 0.00 | 0.00 | 0.00 | 58 | 1017.2 |
| 20260507044733 | 8 | 295 | 0.0 | 0.0 | 0.00 | 0.00 | 0.00 | 57 | 1017.4 |
| 20260507044229 | 8 | 294 | 0.0 | 0.0 | 0.00 | 0.00 | 0.00 | 56 | 1017.3 |
| 20260507043726 | 8 | 317 | 0.0 | 0.0 | 0.00 | 0.00 | 0.00 | 58 | 1017.5 |
| 20260507043223 | 8 | 317 | 0.0 | 0.0 | 0.00 | 0.00 | 0.00 | 56 | 1017.4 |
| 20260507042719 | 8 | 317 | 0.0 | 0.0 | 0.00 | 0.00 | 0.00 | 56 | 1017.5 |
| 20260507042214 | 8 | 317 | 0.0 | 0.0 | 0.00 | 0.00 | 0.00 | 56 | 1017.4 |
| 20260507041712 | 8 | 317 | 0.0 | 0.0 | 0.00 | 0.00 | 0.00 | 56 | 1017.5 |
| 20260507041208 | 8 | 317 | 0.0 | 0.0 | 0.00 | 0.00 | 0.00 | 57 | 1017.4 |
| 20260507040705 | 8 | 317 | 0.0 | 0.0 | 0.00 | 0.00 | 0.00 | 57 | 1017.4 |
| 20260507040201 | 8 | 317 | 0.0 | 0.0 | 0.00 | 0.00 | 0.00 | 56 | 1017.4 |
| 20260507035657 | 8 | 317 | 0.0 | 0.0 | 0.00 | 0.00 | 0.00 | 56 | 1017.5 |
| 20260507035153 | 8 | 317 | 0.0 | 0.0 | 0.00 | 0.00 | 0.00 | 55 | 1017.5 |
| 20260507034650 | 8 | 317 | 0.0 | 0.0 | 0.00 | 0.00 | 0.00 | 56 | 1017.4 |
| 20260507034148 | 8 | 317 | 0.0 | 0.0 | 0.00 | 0.00 | 0.00 | 54 | 1017.4 |
| 20260507033646 | 9 | 317 | 0.0 | 0.0 | 0.00 | 0.00 | 0.00 | 51 | 1017.5 |
| 20260507033143 | 9 | 317 | 0.0 | 0.0 | 0.00 | 0.00 | 0.00 | 51 | 1017.5 |
| 20260507032641 | 8 | 317 | 0.0 | 0.0 | 0.00 | 0.00 | 0.00 | 50 | 1017.5 |
| 20260507032136 | 8 | 317 | 0.0 | 0.0 | 0.00 | 0.00 | 0.00 | 53 | 1017.6 |
| 20260507031633 | 9 | 317 | 0.0 | 0.0 | 0.00 | 0.00 | 0.00 | 53 | 1017.5 |
| 20260507031130 | 10 | 317 | 0.0 | 0.0 | 0.00 | 0.00 | 0.00 | 50 | 1017.3 |
| 20260507030627 | 9 | 317 | 0.0 | 0.0 | 0.00 | 0.00 | 0.00 | 51 | 1017.4 |
| 20260507030125 | 9 | 317 | 0.0 | 0.0 | 0.00 | 0.00 | 0.00 | 49 | 1017.5 |
| 20260507025621 | 9 | 317 | 0.0 | 0.0 | 0.00 | 0.00 | 0.00 | 47 | 1017.5 |
| 20260507025118 | 9 | 317 | 0.0 | 0.0 | 0.00 | 0.00 | 0.00 | 50 | 1017.3 |
| 20260507024616 | 9 | 317 | 0.0 | 0.0 | 0.00 | 0.00 | 0.00 | 51 | 1017.4 |
| 20260507024113 | 9 | 317 | 0.0 | 0.0 | 0.00 | 0.00 | 0.00 | 51 | 1017.3 |
| 20260507023608 | 9 | 317 | 0.0 | 0.0 | 0.00 | 0.00 | 0.00 | 49 | 1017.3 |
| 20260507023106 | 9 | 317 | 0.0 | 0.0 | 0.00 | 0.00 | 0.00 | 47 | 1017.3 |
| 20260507022603 | 10 | 317 | 0.0 | 0.0 | 0.00 | 0.00 | 0.00 | 48 | 1017.0 |
| 20260507022058 | 10 | 317 | 0.0 | 0.0 | 0.00 | 0.00 | 0.00 | 51 | 1017.3 |
| 20260507021555 | 10 | 317 | 0.0 | 0.0 | 0.00 | 0.00 | 0.00 | 47 | 1017.0 |
| 20260507021051 | 10 | 317 | 0.0 | 0.0 | 0.00 | 0.00 | 0.00 | 42 | 1017.1 |
| 20260507020549 | 11 | 317 | 0.0 | 0.0 | 0.00 | 0.00 | 0.00 | 43 | 1017.1 |
| 20260507020045 | 11 | 317 | 0.0 | 0.0 | 0.00 | 0.00 | 0.00 | 39 | 1016.9 |
| 20260507015544 | 11 | 317 | 0.0 | 0.0 | 0.00 | 0.00 | 0.00 | 39 | 1017.3 |
| 20260507015041 | 11 | 317 | 0.0 | 0.0 | 0.00 | 0.00 | 0.00 | 40 | 1017.0 |
| 20260507014537 | 11 | 317 | 0.0 | 0.0 | 0.00 | 0.00 | 0.00 | 40 | 1016.8 |
| 20260507014033 | 11 | 317 | 0.0 | 0.0 | 0.00 | 0.00 | 0.00 | 42 | 1016.9 |
| 20260507013530 | 12 | 317 | 0.0 | 0.0 | 0.00 | 0.00 | 0.00 | 39 | 1016.8 |
| 20260507013027 | 12 | 317 | 0.0 | 0.0 | 0.00 | 0.00 | 0.00 | 40 | 1016.8 |
| 20260507012524 | 12 | 317 | 0.0 | 0.0 | 0.00 | 0.00 | 0.00 | 40 | 1016.7 |
| 20260507012020 | 12 | 317 | 0.0 | 0.0 | 0.00 | 0.00 | 0.00 | 39 | 1016.6 |
| 20260507011518 | 12 | 318 | 0.0 | 0.0 | 0.00 | 0.00 | 0.00 | 38 | 1016.6 |
| 20260507011014 | 12 | 315 | 0.0 | 0.0 | 0.00 | 0.00 | 0.00 | 37 | 1016.6 |
| 20260507010508 | 13 | 315 | 0.0 | 0.0 | 0.00 | 0.00 | 0.00 | 35 | 1016.6 |
| 20260507010005 | 13 | 315 | 0.0 | 0.0 | 0.00 | 0.00 | 0.00 | 34 | 1016.6 |
| 20260507005503 | 13 | 315 | 0.0 | 0.0 | 0.00 | 0.00 | 0.00 | 33 | 1016.8 |
| 20260507004959 | 14 | 316 | 0.0 | 0.0 | 0.00 | 0.00 | 0.00 | 33 | 1016.8 |
| 20260507004456 | 14 | 319 | 0.0 | 0.0 | 0.00 | 0.00 | 0.00 | 31 | 1017.0 |
| 20260507003954 | 14 | 315 | 0.0 | 0.0 | 0.00 | 0.00 | 0.00 | 31 | 1016.7 |
| 20260507003448 | 15 | 320 | 0.0 | 0.0 | 0.00 | 0.00 | 0.00 | 30 | 1016.7 |
| 20260507002944 | 15 | 303 | 0.0 | 1.6 | 0.00 | 0.00 | 0.00 | 30 | 1016.8 |
| 20260507002440 | 15 | 301 | 0.0 | 1.6 | 0.00 | 0.00 | 0.00 | 30 | 1016.7 |
| 20260507001937 | 15 | 322 | 1.6 | 4.8 | 0.00 | 0.00 | 0.00 | 29 | 1016.6 |
| 20260507001434 | 15 | 304 | 0.0 | 1.6 | 0.00 | 0.00 | 0.00 | 29 | 1016.6 |
| 20260507000932 | 15 | 338 | 1.6 | 1.6 | 0.00 | 0.00 | 0.00 | 28 | 1016.6 |
| 20260507000427 | 15 | 306 | 0.0 | 1.6 | 0.00 | 0.00 | 0.00 | 29 | 1016.8 |
| 20260506235923 | 15 | 309 | 0.0 | 0.0 | 0.00 | 0.00 | 0.00 | 27 | 1016.7 |
| 20260506235421 | 15 | 314 | 0.0 | 0.0 | 0.00 | 0.00 | 0.00 | 28 | 1016.7 |